Vick, Arkansas
Current Conditions -  °F | °C
As of 2:53 PM on Saturday 20 Dec 2014 (Local Time) from KLLQ Reporting Station
Clear Clear  
Wind Chill: 54°   Ceiling: Unl
Heat Index: 54°   Visibility: 10mi
Dew Point: 39°   Wind: 7mph
Humidity: 57%   Direction: 60°ENE
Pressure: 30.19"   Gusts: NA
Location:  33.37°N, 92.1129°W
Report Text: KLLQ 202053Z AUTO 06006KT 10SM CLR 12/04 A3019 RMK AO2 SLP221 T01220039 56018
Loading
Personal Weather Stations






























Interactive Weather Map New forecast layout! Learn more

10-Day Weather Forecast

Advertisements
Track Severe Weather on mobile